Portada
METAR-TAF:

METAR-TAF

Aeroports :

Bélgorod, Rússia

latitud: 50-38-36N, longitud: 036-35-24E, altitud: 224 m

Observació

L'informe es va fer fa 18 minuts, a les 02:30 UTC
Vent 17 kt del Est/Sud-Est
Temperatura 15°C
Humitat 39%
Pressió 1016 hPa
Visibilitat 10 km o més
sense núvols per sota de 1500 mi sense presència de cumulonimbus.

METAR: UUOB 010230Z 12009MPS CAVOK 15/01 Q1016 R11/010060 NOSIG

Hora: 05:48 (02:48 UTC)

Pronòstic

L'informe es va fer fa 48 minuts, a les 02:00 UTC
Pronòstic vàlid del 01 a les 03 UTC al 01 a les 12 UTC
Vent 16 kt del Est amb ràfegues de 25 kt
Visibilitat 10 km o més
Núvols disperses a una alçada de 2000 ft, Cumulonimbus.
Cel ennuvolat a una alçada de 4000 ft
Temporalment
l' 01 a les 05 UTC al 01 a les 12 UTC
Vent 19 kt del Sud-Est amb ràfegues de 29 kt

TAF: UUOB 010200Z 0103/0112 10008G13MPS 9999 SCT020CB BKN040 TEMPO 0105/0112 13010G15MPS

Observacions i pronòstics meteorològics de més de 4000 aeroports (METAR i TAF).

Les estacions disponibles són els punts grocs i vermells al mapa.

Posi el ratolí al punt desitjat per veure el nom de l'estació.

Feu clic per veure les observacions i els pronòstics meteorològics.

Per canviar el mapa: feu clic els botons verds amb una creu de color negre per apropar; al botó verd amb un guió per allunyar la imatge; o en les fletxes verdes per a mapes adjacents.


METAR-TAF: